createdAt,value
2022-08-07T00:00:09.065Z,1006.46
2022-08-07T00:01:12.501Z,1006.41
2022-08-07T00:02:37.292Z,1006.37
2022-08-07T00:03:10.086Z,1006.38
2022-08-07T00:04:09.663Z,1006.38
2022-08-07T00:05:09.055Z,1006.39
2022-08-07T00:06:09.009Z,1006.35
2022-08-07T00:07:09.536Z,1006.35
2022-08-07T00:08:08.970Z,1006.35
2022-08-07T00:09:16.942Z,1006.40
2022-08-07T00:10:27.291Z,1006.37
2022-08-07T00:11:09.909Z,1006.34
2022-08-07T00:12:08.908Z,1006.35
2022-08-07T00:13:23.934Z,1006.33
2022-08-07T00:14:09.883Z,1006.31
2022-08-07T00:15:08.871Z,1006.33
2022-08-07T00:16:08.859Z,1006.27
2022-08-07T00:17:09.846Z,1006.29
2022-08-07T00:18:08.894Z,1006.31
2022-08-07T00:19:09.845Z,1006.28
2022-08-07T00:20:09.811Z,1006.30
2022-08-07T00:21:57.481Z,1006.28
2022-08-07T00:22:09.791Z,1006.26
2022-08-07T00:23:08.791Z,1006.31
2022-08-07T00:24:08.782Z,1006.28
2022-08-07T00:25:15.741Z,1006.24
2022-08-07T00:26:18.860Z,1006.24
2022-08-07T00:27:09.723Z,1006.28
2022-08-07T00:28:08.722Z,1006.26
2022-08-07T00:29:08.706Z,1006.19
2022-08-07T00:30:26.757Z,1006.26
2022-08-07T00:31:12.756Z,1006.20
2022-08-07T00:32:09.674Z,1006.17
2022-08-07T00:33:08.657Z,1006.20
2022-08-07T00:34:09.305Z,1006.13
2022-08-07T00:35:08.643Z,1006.16
2022-08-07T00:36:08.658Z,1006.17
2022-08-07T00:37:08.615Z,1006.15
2022-08-07T00:38:08.605Z,1006.10
2022-08-07T00:39:08.638Z,1006.14
2022-08-07T00:40:10.923Z,1006.15
2022-08-07T00:41:10.051Z,1006.11
2022-08-07T00:42:09.575Z,1006.09
2022-08-07T00:43:09.891Z,1006.10
2022-08-07T00:44:08.545Z,1006.10
2022-08-07T00:45:08.529Z,1006.13
2022-08-07T00:46:09.506Z,1006.12
2022-08-07T00:47:15.800Z,1006.11
2022-08-07T00:48:10.890Z,1006.07
2022-08-07T00:49:08.470Z,1006.10
2022-08-07T00:50:21.529Z,1006.12
2022-08-07T00:51:09.460Z,1006.13
2022-08-07T00:52:08.438Z,1006.12
2022-08-07T00:53:09.290Z,1006.04
2022-08-07T00:54:08.416Z,1006.12
2022-08-07T00:55:10.627Z,1006.08
2022-08-07T00:56:13.774Z,1006.07
2022-08-07T00:57:09.379Z,1006.02
2022-08-07T00:58:08.368Z,1006.07
2022-08-07T00:59:08.379Z,1006.00
2022-08-07T01:00:08.380Z,1006.00
2022-08-07T01:01:08.446Z,1006.03
2022-08-07T01:02:14.134Z,1006.00
2022-08-07T01:03:09.308Z,1006.03
2022-08-07T01:04:08.306Z,1005.99
2022-08-07T01:05:19.294Z,1006.00
2022-08-07T01:06:09.271Z,1006.04
2022-08-07T01:07:08.265Z,1005.97
2022-08-07T01:08:09.126Z,1005.99
2022-08-07T01:09:08.300Z,1005.98
2022-08-07T01:10:11.118Z,1006.11
2022-08-07T01:11:23.659Z,1005.99
2022-08-07T01:12:30.025Z,1006.04
2022-08-07T01:13:09.198Z,1005.98
2022-08-07T01:14:08.169Z,1006.05
2022-08-07T01:15:11.945Z,1006.01
2022-08-07T01:16:09.170Z,1005.99
2022-08-07T01:17:08.161Z,1005.97
2022-08-07T01:18:09.593Z,1005.98
2022-08-07T01:19:18.004Z,1006.00
2022-08-07T01:20:09.114Z,1005.98
2022-08-07T01:21:22.843Z,1005.95
2022-08-07T01:22:09.099Z,1005.90
2022-08-07T01:23:12.718Z,1005.95
2022-08-07T01:24:08.075Z,1005.89
2022-08-07T01:25:54.727Z,1005.91
2022-08-07T01:26:12.166Z,1005.86
2022-08-07T01:27:19.615Z,1005.86
2022-08-07T01:28:09.022Z,1005.82
2022-08-07T01:29:08.016Z,1005.82
2022-08-07T01:30:07.993Z,1005.90
2022-08-07T01:31:07.987Z,1005.81
2022-08-07T01:32:12.372Z,1005.81
2022-08-07T01:33:07.975Z,1005.89
2022-08-07T01:34:07.948Z,1005.80
2022-08-07T01:35:07.936Z,1005.88
2022-08-07T01:36:07.935Z,1005.91
2022-08-07T01:37:10.495Z,1005.79
2022-08-07T01:38:07.926Z,1005.87
2022-08-07T01:39:09.837Z,1005.83
2022-08-07T01:40:14.822Z,1005.77
2022-08-07T01:41:08.885Z,1005.82
2022-08-07T01:42:38.311Z,1005.81
2022-08-07T01:43:08.885Z,1005.84
2022-08-07T01:44:07.835Z,1005.83
2022-08-07T01:45:10.118Z,1005.86
2022-08-07T01:46:12.145Z,1005.85
2022-08-07T01:48:17.678Z,1005.87
2022-08-07T01:48:17.810Z,1005.89
2022-08-07T01:49:08.788Z,1005.87
2022-08-07T01:50:07.759Z,1005.88
2022-08-07T01:51:24.408Z,1005.87
2022-08-07T01:52:08.737Z,1005.79
2022-08-07T01:53:08.567Z,1005.84
2022-08-07T01:54:11.854Z,1005.76
2022-08-07T01:55:08.708Z,1005.71
2022-08-07T01:56:08.699Z,1005.74
2022-08-07T01:57:08.462Z,1005.78
2022-08-07T01:58:29.451Z,1005.80
2022-08-07T01:59:08.688Z,1005.81
2022-08-07T02:00:12.862Z,1005.89
2022-08-07T02:01:09.751Z,1005.86
2022-08-07T02:02:10.473Z,1005.79
2022-08-07T02:03:18.298Z,1005.83
2022-08-07T02:04:08.639Z,1005.82
2022-08-07T02:05:07.610Z,1005.84
2022-08-07T02:06:09.027Z,1005.88
2022-08-07T02:07:08.579Z,1005.83
2022-08-07T02:08:07.611Z,1005.89
2022-08-07T02:09:07.540Z,1005.83
2022-08-07T02:10:07.635Z,1005.91
2022-08-07T02:11:08.655Z,1005.91
2022-08-07T02:12:07.527Z,1005.88
2022-08-07T02:13:07.799Z,1005.83
2022-08-07T02:14:07.497Z,1005.86
2022-08-07T02:15:07.489Z,1005.87
2022-08-07T02:16:07.640Z,1005.90
2022-08-07T02:17:07.474Z,1005.92
2022-08-07T02:18:07.436Z,1005.92
2022-08-07T02:20:04.685Z,1005.90
2022-08-07T02:20:17.573Z,1005.95
2022-08-07T02:21:08.444Z,1005.94
2022-08-07T02:22:08.430Z,1005.92
2022-08-07T02:23:07.373Z,1005.96
2022-08-07T02:24:07.370Z,1005.97
2022-08-07T02:25:13.979Z,1005.95
2022-08-07T02:26:31.791Z,1005.97
2022-08-07T02:27:08.360Z,1005.99
2022-08-07T02:28:07.343Z,1005.97
2022-08-07T02:29:07.313Z,1006.04
2022-08-07T02:30:08.637Z,1006.01
2022-08-07T02:31:18.690Z,1006.04
2022-08-07T02:32:10.876Z,1005.93
2022-08-07T02:33:09.579Z,1005.98
2022-08-07T02:34:11.525Z,1005.96
2022-08-07T02:35:09.077Z,1005.92
2022-08-07T02:36:30.488Z,1006.00
2022-08-07T02:37:08.412Z,1005.93
2022-08-07T02:38:07.225Z,1005.95
2022-08-07T02:39:16.684Z,1005.97
2022-08-07T02:40:29.829Z,1005.97
2022-08-07T02:41:08.268Z,1005.98
2022-08-07T02:42:09.905Z,1005.97
2022-08-07T02:43:08.295Z,1005.95
2022-08-07T02:44:07.147Z,1005.97
2022-08-07T02:45:07.624Z,1005.98
2022-08-07T02:46:08.120Z,1005.98
2022-08-07T02:47:07.116Z,1005.94
2022-08-07T02:48:10.002Z,1005.90
2022-08-07T02:49:07.099Z,1005.92
2022-08-07T02:50:07.097Z,1005.86
2022-08-07T02:51:07.057Z,1005.87
2022-08-07T02:52:08.039Z,1005.83
2022-08-07T02:53:10.987Z,1005.83
2022-08-07T02:54:07.027Z,1005.83
2022-08-07T02:55:27.642Z,1005.85
2022-08-07T02:56:08.139Z,1005.86
2022-08-07T02:57:07.998Z,1005.84
2022-08-07T02:58:06.989Z,1005.85
2022-08-07T02:59:06.959Z,1005.85
2022-08-07T03:00:11.112Z,1005.87
2022-08-07T03:01:15.932Z,1005.83
2022-08-07T03:02:08.037Z,1005.85
2022-08-07T03:03:06.910Z,1005.88
2022-08-07T03:04:12.632Z,1005.82
2022-08-07T03:05:07.912Z,1005.82
2022-08-07T03:06:06.924Z,1005.79
2022-08-07T03:07:10.596Z,1005.83
2022-08-07T03:08:10.326Z,1005.80
2022-08-07T03:09:06.841Z,1005.82
2022-08-07T03:10:06.843Z,1005.79
2022-08-07T03:11:06.867Z,1005.80
2022-08-07T03:12:06.826Z,1005.80
2022-08-07T03:13:06.832Z,1005.76
2022-08-07T03:14:06.833Z,1005.76
2022-08-07T03:15:07.880Z,1005.79
2022-08-07T03:16:06.762Z,1005.77
2022-08-07T03:17:08.764Z,1005.75
2022-08-07T03:18:06.767Z,1005.75
2022-08-07T03:19:06.762Z,1005.83
2022-08-07T03:20:06.733Z,1005.77
2022-08-07T03:21:08.909Z,1005.76
2022-08-07T03:22:06.728Z,1005.75
2022-08-07T03:23:06.677Z,1005.74
2022-08-07T03:24:18.462Z,1005.74
2022-08-07T03:25:07.664Z,1005.71
2022-08-07T03:26:06.665Z,1005.67
2022-08-07T03:27:09.063Z,1005.72
2022-08-07T03:28:09.563Z,1005.67
2022-08-07T03:29:11.006Z,1005.71
2022-08-07T03:30:06.634Z,1005.63
2022-08-07T03:31:06.654Z,1005.67
2022-08-07T03:32:06.585Z,1005.68
2022-08-07T03:33:07.945Z,1005.64
2022-08-07T03:34:06.565Z,1005.62
2022-08-07T03:35:17.674Z,1005.62
2022-08-07T03:36:07.576Z,1005.59
2022-08-07T03:37:12.415Z,1005.61
2022-08-07T03:38:07.506Z,1005.61
2022-08-07T03:39:06.527Z,1005.61
2022-08-07T03:40:14.972Z,1005.55
2022-08-07T03:41:07.497Z,1005.61
2022-08-07T03:42:06.495Z,1005.57
2022-08-07T03:43:13.838Z,1005.60
2022-08-07T03:44:07.438Z,1005.60
2022-08-07T03:45:06.438Z,1005.53
2022-08-07T03:46:10.445Z,1005.55
2022-08-07T03:47:13.029Z,1005.52
2022-08-07T03:48:10.108Z,1005.50
2022-08-07T03:49:06.400Z,1005.56
2022-08-07T03:50:06.376Z,1005.59
2022-08-07T03:51:06.377Z,1005.55
2022-08-07T03:52:06.360Z,1005.63
2022-08-07T03:53:06.838Z,1005.59
2022-08-07T03:54:35.322Z,1005.62
2022-08-07T03:55:07.952Z,1005.58
2022-08-07T03:56:06.302Z,1005.59
2022-08-07T03:57:07.399Z,1005.60
2022-08-07T03:58:33.471Z,1005.61
2022-08-07T03:59:09.748Z,1005.62
2022-08-07T04:00:06.285Z,1005.63
2022-08-07T04:01:07.523Z,1005.63
2022-08-07T04:02:06.232Z,1005.62
2022-08-07T04:03:06.243Z,1005.63
2022-08-07T04:04:06.218Z,1005.62
2022-08-07T04:05:06.261Z,1005.66
2022-08-07T04:06:06.193Z,1005.63
2022-08-07T04:07:07.654Z,1005.65
2022-08-07T04:08:07.162Z,1005.71
2022-08-07T04:09:06.156Z,1005.64
2022-08-07T04:10:06.151Z,1005.68
2022-08-07T04:12:23.384Z,1005.76
2022-08-07T04:12:23.691Z,1005.66
2022-08-07T04:13:07.121Z,1005.63
2022-08-07T04:14:09.945Z,1005.65
2022-08-07T04:15:07.101Z,1005.63
2022-08-07T04:16:06.083Z,1005.65
2022-08-07T04:17:20.270Z,1005.65
2022-08-07T04:18:57.907Z,1005.66
2022-08-07T04:19:12.805Z,1005.65
2022-08-07T04:20:07.029Z,1005.65
2022-08-07T04:21:07.268Z,1005.68
2022-08-07T04:22:13.295Z,1005.71
2022-08-07T04:23:07.016Z,1005.78
2022-08-07T04:24:07.471Z,1005.72
2022-08-07T04:25:08.784Z,1005.67
2022-08-07T04:26:06.958Z,1005.76
2022-08-07T04:27:05.946Z,1005.71
2022-08-07T04:28:06.945Z,1005.73
2022-08-07T04:29:05.939Z,1005.73
2022-08-07T04:30:11.935Z,1005.75
2022-08-07T04:31:07.511Z,1005.70
2022-08-07T04:32:10.214Z,1005.79
2022-08-07T04:33:07.472Z,1005.78
2022-08-07T04:34:05.866Z,1005.77
2022-08-07T04:35:07.044Z,1005.83
2022-08-07T04:36:06.646Z,1005.77
2022-08-07T04:37:07.983Z,1005.80
2022-08-07T04:38:07.528Z,1005.82
2022-08-07T04:39:05.839Z,1005.76
2022-08-07T04:40:05.800Z,1005.84
2022-08-07T04:41:05.798Z,1005.85
2022-08-07T04:42:05.775Z,1005.89
2022-08-07T04:43:05.772Z,1005.88
2022-08-07T04:44:12.364Z,1005.87
2022-08-07T04:45:08.128Z,1005.92
2022-08-07T04:46:05.731Z,1005.92
2022-08-07T04:47:08.529Z,1005.91
2022-08-07T04:48:10.331Z,1005.93
2022-08-07T04:49:07.468Z,1005.98
2022-08-07T04:50:06.670Z,1005.96
2022-08-07T04:51:05.658Z,1005.92
2022-08-07T04:52:05.653Z,1005.94
2022-08-07T04:53:05.655Z,1005.91
2022-08-07T04:54:06.849Z,1005.93
2022-08-07T04:55:15.472Z,1005.88
2022-08-07T04:58:11.332Z,1005.96
2022-08-07T04:58:13.257Z,1005.92
2022-08-07T04:58:23.669Z,1005.91
2022-08-07T05:00:07.956Z,1005.95
2022-08-07T05:00:11.956Z,1005.97
2022-08-07T05:01:06.599Z,1005.95
2022-08-07T05:02:06.540Z,1005.90
2022-08-07T05:03:31.119Z,1005.89
2022-08-07T05:04:08.861Z,1005.92
2022-08-07T05:05:11.589Z,1005.90
2022-08-07T05:06:19.619Z,1005.92
2022-08-07T05:07:19.516Z,1005.89
2022-08-07T05:08:06.514Z,1005.91
2022-08-07T05:09:06.229Z,1005.89
2022-08-07T05:10:05.440Z,1005.84
2022-08-07T05:11:05.430Z,1005.88
2022-08-07T05:12:05.435Z,1005.86
2022-08-07T05:14:44.621Z,1005.88
2022-08-07T05:14:53.974Z,1005.91
2022-08-07T05:15:06.392Z,1005.86
2022-08-07T05:16:05.381Z,1005.90
2022-08-07T05:17:05.907Z,1005.93
2022-08-07T05:18:09.281Z,1005.92
2022-08-07T05:19:05.348Z,1005.98
2022-08-07T05:20:09.681Z,1006.01
2022-08-07T05:21:05.316Z,1005.94
2022-08-07T05:22:05.305Z,1005.96
2022-08-07T05:23:05.288Z,1005.94
2022-08-07T05:24:06.297Z,1006.01
2022-08-07T05:25:08.588Z,1005.99
2022-08-07T05:26:11.802Z,1005.96
2022-08-07T05:27:06.255Z,1006.01
2022-08-07T05:28:19.969Z,1005.98
2022-08-07T05:29:06.227Z,1006.05
2022-08-07T05:30:05.255Z,1006.08
2022-08-07T05:31:05.204Z,1006.10
2022-08-07T05:32:05.208Z,1006.10
2022-08-07T05:33:05.182Z,1006.09
2022-08-07T05:34:10.737Z,1006.06
2022-08-07T05:35:06.241Z,1006.12
2022-08-07T05:36:05.146Z,1006.09
2022-08-07T05:37:05.857Z,1006.13
2022-08-07T05:38:08.882Z,1006.07
2022-08-07T05:39:16.004Z,1006.14
2022-08-07T05:40:18.538Z,1006.12
2022-08-07T05:41:14.431Z,1006.18
2022-08-07T05:42:08.852Z,1006.18
2022-08-07T05:43:06.059Z,1006.15
2022-08-07T05:44:11.989Z,1006.29
2022-08-07T05:45:25.996Z,1006.27
2022-08-07T05:46:06.040Z,1006.24
2022-08-07T05:47:18.248Z,1006.25
2022-08-07T05:48:06.267Z,1006.32
2022-08-07T05:49:11.710Z,1006.28
2022-08-07T05:50:05.981Z,1006.22
2022-08-07T05:51:04.959Z,1006.26
2022-08-07T05:52:04.989Z,1006.33
2022-08-07T05:53:04.956Z,1006.37
2022-08-07T05:54:12.100Z,1006.26
2022-08-07T05:55:10.884Z,1006.31
2022-08-07T05:56:06.809Z,1006.39
2022-08-07T05:57:04.932Z,1006.40
2022-08-07T05:58:04.931Z,1006.35
2022-08-07T05:59:04.880Z,1006.24
2022-08-07T06:00:04.870Z,1006.24
2022-08-07T06:01:05.996Z,1006.33
2022-08-07T06:02:05.903Z,1006.27
2022-08-07T06:03:04.913Z,1006.28
2022-08-07T06:04:04.840Z,1006.30
2022-08-07T06:05:04.826Z,1006.30
2022-08-07T06:06:04.796Z,1006.30
2022-08-07T06:07:04.805Z,1006.26
2022-08-07T06:08:14.461Z,1006.25
2022-08-07T06:09:05.812Z,1006.27
2022-08-07T06:10:06.102Z,1006.28
2022-08-07T06:11:05.733Z,1006.27
2022-08-07T06:12:04.713Z,1006.29
2022-08-07T06:13:04.726Z,1006.33
2022-08-07T06:14:12.466Z,1006.39
2022-08-07T06:15:06.057Z,1006.38
2022-08-07T06:16:04.665Z,1006.23
2022-08-07T06:17:07.278Z,1006.27
2022-08-07T06:18:04.649Z,1006.30
2022-08-07T06:19:06.561Z,1006.31
2022-08-07T06:20:04.814Z,1006.30
2022-08-07T06:22:15.240Z,1006.34
2022-08-07T06:22:15.241Z,1006.30
2022-08-07T06:23:46.435Z,1006.35
2022-08-07T06:24:45.763Z,1006.41
2022-08-07T06:25:05.698Z,1006.32
2022-08-07T06:26:04.577Z,1006.33
2022-08-07T06:27:04.557Z,1006.37
2022-08-07T06:28:04.744Z,1006.26
2022-08-07T06:29:06.505Z,1006.30
2022-08-07T06:30:04.506Z,1006.31
2022-08-07T06:31:04.503Z,1006.28
2022-08-07T06:32:04.587Z,1006.24
2022-08-07T06:33:04.493Z,1006.30
2022-08-07T06:34:04.476Z,1006.24
2022-08-07T06:35:10.565Z,1006.26
2022-08-07T06:36:13.381Z,1006.28
2022-08-07T06:37:05.486Z,1006.29
2022-08-07T06:38:04.423Z,1006.20
2022-08-07T06:40:17.162Z,1006.26
2022-08-07T06:40:17.215Z,1006.26
2022-08-07T06:41:06.951Z,1006.23
2022-08-07T06:42:04.480Z,1006.25
2022-08-07T06:43:04.389Z,1006.26
2022-08-07T06:44:06.633Z,1006.29
2022-08-07T06:45:05.350Z,1006.25
2022-08-07T06:46:04.346Z,1006.30
2022-08-07T06:47:12.531Z,1006.27
2022-08-07T06:48:05.372Z,1006.27
2022-08-07T06:49:04.370Z,1006.27
2022-08-07T06:50:04.366Z,1006.20
2022-08-07T06:51:08.032Z,1006.21
2022-08-07T06:52:07.492Z,1006.22
2022-08-07T06:53:05.251Z,1006.22
2022-08-07T06:55:28.725Z,1006.26
2022-08-07T06:55:32.877Z,1006.16
2022-08-07T06:56:07.462Z,1006.19
2022-08-07T06:57:05.218Z,1006.16
2022-08-07T06:58:04.462Z,1006.15
2022-08-07T07:00:11.648Z,1006.12
2022-08-07T07:00:14.349Z,1006.15
2022-08-07T07:01:05.173Z,1006.20
2022-08-07T07:02:04.202Z,1006.13
2022-08-07T07:03:08.646Z,1006.09
2022-08-07T07:04:32.314Z,1006.07
2022-08-07T07:05:05.108Z,1006.09
2022-08-07T07:06:06.304Z,1006.07
2022-08-07T07:07:10.819Z,1006.09
2022-08-07T07:08:07.370Z,1006.13
2022-08-07T07:09:05.046Z,1006.10
2022-08-07T07:10:05.011Z,1006.07
2022-08-07T07:11:14.060Z,1006.07
2022-08-07T07:12:07.748Z,1006.09
2022-08-07T07:13:05.041Z,1006.04
2022-08-07T07:14:03.989Z,1006.03
2022-08-07T07:15:04.222Z,1006.04
2022-08-07T07:16:04.999Z,1005.98
2022-08-07T07:17:03.966Z,1006.03
2022-08-07T07:18:05.542Z,1005.94
2022-08-07T07:19:11.519Z,1006.02
2022-08-07T07:20:04.930Z,1005.99
2022-08-07T07:21:04.084Z,1005.99
2022-08-07T07:22:12.508Z,1006.01
2022-08-07T07:24:06.388Z,1006.03
2022-08-07T07:24:09.661Z,1005.99
2022-08-07T07:26:30.844Z,1006.03
2022-08-07T07:26:35.579Z,1005.99
2022-08-07T07:27:04.850Z,1006.01
2022-08-07T07:28:07.877Z,1006.01
2022-08-07T07:29:39.390Z,1006.02
2022-08-07T07:30:09.986Z,1006.04
2022-08-07T07:31:04.812Z,1005.99
2022-08-07T07:32:03.813Z,1006.10
2022-08-07T07:33:03.782Z,1005.98
2022-08-07T07:34:03.761Z,1006.02
2022-08-07T07:35:04.074Z,1006.02
2022-08-07T07:36:04.722Z,1006.05
2022-08-07T07:37:14.722Z,1006.04
2022-08-07T07:38:05.960Z,1005.99
2022-08-07T07:39:03.776Z,1005.99
2022-08-07T07:40:03.760Z,1005.97
2022-08-07T07:41:04.701Z,1005.93
2022-08-07T07:42:13.020Z,1005.96
2022-08-07T07:43:15.430Z,1005.90
2022-08-07T07:44:17.826Z,1005.85
2022-08-07T07:45:04.639Z,1005.92
2022-08-07T07:46:36.972Z,1005.87
2022-08-07T07:47:13.976Z,1005.88
2022-08-07T07:48:04.676Z,1005.88
2022-08-07T07:49:09.117Z,1005.86
2022-08-07T07:50:34.081Z,1005.89
2022-08-07T07:51:07.682Z,1005.86
2022-08-07T07:52:03.595Z,1005.85
2022-08-07T07:53:03.552Z,1005.81
2022-08-07T07:54:03.568Z,1005.79
2022-08-07T07:55:03.623Z,1005.82
2022-08-07T07:56:03.508Z,1005.81
2022-08-07T07:57:03.497Z,1005.82
2022-08-07T07:58:03.499Z,1005.77
2022-08-07T07:59:03.486Z,1005.76
2022-08-07T08:00:03.457Z,1005.73
2022-08-07T08:02:03.603Z,1005.75
2022-08-07T08:02:10.291Z,1005.71
2022-08-07T08:03:05.561Z,1005.78
2022-08-07T08:04:10.549Z,1005.67
2022-08-07T08:05:04.402Z,1005.71
2022-08-07T08:06:03.388Z,1005.65
2022-08-07T08:07:08.019Z,1005.69
2022-08-07T08:08:03.553Z,1005.61
2022-08-07T08:09:03.353Z,1005.69
2022-08-07T08:10:04.908Z,1005.63
2022-08-07T08:11:03.750Z,1005.64
2022-08-07T08:12:04.990Z,1005.66
2022-08-07T08:13:03.356Z,1005.67
2022-08-07T08:14:03.301Z,1005.68
2022-08-07T08:15:06.786Z,1005.69
2022-08-07T08:16:03.274Z,1005.65
2022-08-07T08:17:55.481Z,1005.63
2022-08-07T08:18:17.227Z,1005.66
2022-08-07T08:19:17.459Z,1005.62
2022-08-07T08:20:20.006Z,1005.64
2022-08-07T08:21:04.221Z,1005.70
2022-08-07T08:22:03.914Z,1005.63
2022-08-07T08:23:03.211Z,1005.65
2022-08-07T08:24:03.212Z,1005.60
2022-08-07T08:25:09.586Z,1005.53
2022-08-07T08:26:06.947Z,1005.54
2022-08-07T08:27:05.910Z,1005.56
2022-08-07T08:28:04.309Z,1005.60
2022-08-07T08:29:03.188Z,1005.52
2022-08-07T08:30:03.115Z,1005.53
2022-08-07T08:31:03.107Z,1005.55
2022-08-07T08:32:18.662Z,1005.54
2022-08-07T08:33:04.274Z,1005.58
2022-08-07T08:34:03.075Z,1005.55
2022-08-07T08:35:03.077Z,1005.53
2022-08-07T08:36:03.054Z,1005.53
2022-08-07T08:37:03.029Z,1005.51
2022-08-07T08:38:03.530Z,1005.47
2022-08-07T08:39:03.110Z,1005.52
2022-08-07T08:40:03.079Z,1005.56
2022-08-07T08:41:03.032Z,1005.55
2022-08-07T08:42:02.979Z,1005.46
2022-08-07T08:43:02.959Z,1005.50
2022-08-07T08:44:02.948Z,1005.44
2022-08-07T08:45:04.162Z,1005.47
2022-08-07T08:46:02.940Z,1005.46
2022-08-07T08:47:02.935Z,1005.49
2022-08-07T08:48:02.911Z,1005.39
2022-08-07T08:49:02.902Z,1005.41
2022-08-07T08:50:05.647Z,1005.38
2022-08-07T08:51:03.399Z,1005.39
2022-08-07T08:52:14.382Z,1005.44
2022-08-07T08:53:03.857Z,1005.43
2022-08-07T08:54:02.831Z,1005.44
2022-08-07T08:55:04.603Z,1005.34
2022-08-07T08:56:02.932Z,1005.36
2022-08-07T08:57:02.837Z,1005.33
2022-08-07T08:58:02.782Z,1005.34
2022-08-07T08:59:08.693Z,1005.33
2022-08-07T09:00:03.763Z,1005.30
2022-08-07T09:01:14.618Z,1005.34
2022-08-07T09:02:03.832Z,1005.33
2022-08-07T09:03:07.544Z,1005.36
2022-08-07T09:04:02.734Z,1005.44
2022-08-07T09:05:02.752Z,1005.41
2022-08-07T09:06:02.716Z,1005.40
2022-08-07T09:07:03.250Z,1005.32
2022-08-07T09:08:02.689Z,1005.26
2022-08-07T09:09:02.681Z,1005.32
2022-08-07T09:10:03.705Z,1005.31
2022-08-07T09:11:02.649Z,1005.31
2022-08-07T09:12:30.778Z,1005.28
2022-08-07T09:13:03.726Z,1005.29
2022-08-07T09:14:02.604Z,1005.31
2022-08-07T09:16:20.620Z,1005.32
2022-08-07T09:16:23.531Z,1005.30
2022-08-07T09:17:03.579Z,1005.29
2022-08-07T09:18:08.703Z,1005.24
2022-08-07T09:19:07.171Z,1005.25
2022-08-07T09:20:34.885Z,1005.24
2022-08-07T09:21:03.535Z,1005.27
2022-08-07T09:22:22.671Z,1005.29
2022-08-07T09:24:30.717Z,1005.25
2022-08-07T09:24:35.030Z,1005.18
2022-08-07T09:25:07.043Z,1005.17
2022-08-07T09:26:03.460Z,1005.19
2022-08-07T09:27:09.134Z,1005.13
2022-08-07T09:28:03.441Z,1005.11
2022-08-07T09:30:03.368Z,1005.14
2022-08-07T09:30:08.271Z,1005.12
2022-08-07T09:31:03.424Z,1005.11
2022-08-07T09:32:02.409Z,1005.04
2022-08-07T09:33:05.526Z,1005.11
2022-08-07T09:34:03.371Z,1005.13
2022-08-07T09:35:04.559Z,1005.10
2022-08-07T09:36:06.222Z,1005.06
2022-08-07T09:37:02.354Z,1005.03
2022-08-07T09:38:02.365Z,1005.10
2022-08-07T09:39:06.230Z,1005.05
2022-08-07T09:40:03.344Z,1005.03
2022-08-07T09:41:03.536Z,1005.08
2022-08-07T09:42:06.049Z,1005.03
2022-08-07T09:43:03.277Z,1005.05
2022-08-07T09:44:06.652Z,1005.01
2022-08-07T09:46:28.746Z,1005.02
2022-08-07T09:47:49.622Z,1004.98
2022-08-07T09:47:51.832Z,1004.97
2022-08-07T09:48:08.835Z,1004.97
2022-08-07T09:50:02.397Z,1004.96
2022-08-07T09:50:18.861Z,1004.94
2022-08-07T09:51:03.182Z,1004.89
2022-08-07T09:52:10.680Z,1004.91
2022-08-07T09:53:03.159Z,1004.87
2022-08-07T09:54:02.828Z,1004.86
2022-08-07T09:55:29.073Z,1004.87
2022-08-07T09:57:12.903Z,1004.84
2022-08-07T09:58:20.024Z,1004.84
2022-08-07T09:59:14.522Z,1004.86
2022-08-07T10:00:14.380Z,1004.86
2022-08-07T10:01:14.894Z,1004.79
2022-08-07T10:02:13.523Z,1004.78
2022-08-07T10:04:03.606Z,1004.76
2022-08-07T10:04:14.211Z,1004.69
2022-08-07T10:05:13.856Z,1004.65
2022-08-07T10:06:12.505Z,1004.67
2022-08-07T10:07:26.186Z,1004.63
2022-08-07T10:08:13.427Z,1004.67
2022-08-07T10:09:13.379Z,1004.69
2022-08-07T10:10:21.754Z,1004.69
2022-08-07T10:11:16.666Z,1004.75
2022-08-07T10:12:19.661Z,1004.71
2022-08-07T10:13:29.718Z,1004.63
2022-08-07T10:14:13.344Z,1004.63
2022-08-07T10:15:15.444Z,1004.55
2022-08-07T10:16:13.313Z,1004.55
2022-08-07T10:17:14.277Z,1004.65
2022-08-07T10:18:12.340Z,1004.62
2022-08-07T10:19:12.273Z,1004.58
2022-08-07T10:20:13.011Z,1004.61
2022-08-07T10:21:19.593Z,1004.52
2022-08-07T10:22:16.333Z,1004.57
2022-08-07T10:23:12.241Z,1004.56
2022-08-07T10:24:15.006Z,1004.57
2022-08-07T10:25:13.202Z,1004.54
2022-08-07T10:26:12.460Z,1004.46
2022-08-07T10:27:12.182Z,1004.51
2022-08-07T10:28:12.535Z,1004.48
2022-08-07T10:29:12.152Z,1004.44
2022-08-07T10:30:12.996Z,1004.44
2022-08-07T10:31:12.133Z,1004.46
2022-08-07T10:32:37.050Z,1004.41
2022-08-07T10:33:15.020Z,1004.42
2022-08-07T10:34:18.248Z,1004.38
2022-08-07T10:35:15.041Z,1004.44
2022-08-07T10:36:13.086Z,1004.39
2022-08-07T10:37:12.735Z,1004.34
2022-08-07T10:38:35.241Z,1004.32
2022-08-07T10:39:13.106Z,1004.40
2022-08-07T10:40:12.648Z,1004.39
2022-08-07T10:41:12.032Z,1004.40
2022-08-07T10:42:21.081Z,1004.35
2022-08-07T10:43:13.044Z,1004.32
2022-08-07T10:44:11.994Z,1004.27
2022-08-07T10:45:11.974Z,1004.26
2022-08-07T10:46:11.980Z,1004.27
2022-08-07T10:47:14.138Z,1004.25
2022-08-07T10:48:12.001Z,1004.27
2022-08-07T10:49:11.927Z,1004.25
2022-08-07T10:50:12.023Z,1004.29
2022-08-07T10:51:16.284Z,1004.25
2022-08-07T10:52:13.958Z,1004.16
2022-08-07T10:53:11.894Z,1004.18
2022-08-07T10:54:11.928Z,1004.19
2022-08-07T10:55:27.100Z,1004.18
2022-08-07T10:56:20.914Z,1004.16
2022-08-07T10:57:12.851Z,1004.19
2022-08-07T10:58:11.845Z,1004.20
2022-08-07T10:59:13.641Z,1004.13
2022-08-07T11:00:36.452Z,1004.11
2022-08-07T11:01:12.843Z,1004.06
2022-08-07T11:02:12.467Z,1004.11
2022-08-07T11:03:12.942Z,1004.15
2022-08-07T11:04:31.484Z,1004.07
2022-08-07T11:05:12.782Z,1004.05
2022-08-07T11:06:11.754Z,1004.09
2022-08-07T11:07:15.012Z,1004.09
2022-08-07T11:08:12.753Z,1004.05
2022-08-07T11:09:11.723Z,1004.16
2022-08-07T11:10:12.722Z,1004.01
2022-08-07T11:11:11.700Z,1004.02
2022-08-07T11:12:11.687Z,1004.02
2022-08-07T11:14:42.016Z,1004.02
2022-08-07T11:14:44.639Z,1004.05
2022-08-07T11:15:17.515Z,1004.03
2022-08-07T11:16:12.698Z,1004.02
2022-08-07T11:17:11.614Z,1004.02
2022-08-07T11:18:12.572Z,1004.06
2022-08-07T11:19:11.607Z,1004.02
2022-08-07T11:20:11.588Z,1004.13
2022-08-07T11:21:11.582Z,1004.14
2022-08-07T11:22:26.449Z,1004.16
2022-08-07T11:23:12.558Z,1004.03
2022-08-07T11:24:12.538Z,1004.09
2022-08-07T11:25:11.528Z,1004.03
2022-08-07T11:26:13.095Z,1004.04
2022-08-07T11:27:13.449Z,1004.03
2022-08-07T11:28:15.460Z,1004.00
2022-08-07T11:29:13.070Z,1003.95
2022-08-07T11:30:18.770Z,1003.95
2022-08-07T11:31:12.470Z,1003.96
2022-08-07T11:32:11.458Z,1003.90
2022-08-07T11:33:14.964Z,1003.94
2022-08-07T11:34:11.442Z,1003.90
2022-08-07T11:35:12.452Z,1003.91
2022-08-07T11:36:11.421Z,1003.88
2022-08-07T11:37:11.580Z,1003.85
2022-08-07T11:38:13.035Z,1003.87
2022-08-07T11:39:14.576Z,1003.87
2022-08-07T11:40:12.440Z,1003.92
2022-08-07T11:41:22.229Z,1003.84
2022-08-07T11:42:18.792Z,1003.74
2022-08-07T11:43:15.453Z,1003.74
2022-08-07T11:44:14.274Z,1003.64
2022-08-07T11:45:12.450Z,1003.68
2022-08-07T11:46:11.304Z,1003.63
2022-08-07T11:47:11.286Z,1003.63
2022-08-07T11:48:18.177Z,1003.63
2022-08-07T11:49:50.716Z,1003.64
2022-08-07T11:50:31.653Z,1003.62
2022-08-07T11:51:12.247Z,1003.56
2022-08-07T11:52:12.231Z,1003.63
2022-08-07T11:53:11.231Z,1003.57
2022-08-07T11:54:11.219Z,1003.67
2022-08-07T11:55:18.609Z,1003.59
2022-08-07T11:56:27.636Z,1003.60
2022-08-07T11:57:14.127Z,1003.58
2022-08-07T11:58:13.176Z,1003.54
2022-08-07T11:59:22.070Z,1003.56
2022-08-07T12:00:19.040Z,1003.60
2022-08-07T12:01:12.140Z,1003.62
2022-08-07T12:02:20.631Z,1003.59
2022-08-07T12:03:44.448Z,1003.56
2022-08-07T12:04:12.103Z,1003.55
2022-08-07T12:05:15.327Z,1003.54
2022-08-07T12:06:39.200Z,1003.51